sensor_id;sensor_type;location;lat;lon;timestamp;P1;durP1;ratioP1;P2;durP2;ratioP2
38715;SDS011;24833;49.324;8.694;2023-02-26T00:01:38;2.22;;;1.75;;
38715;SDS011;24833;49.324;8.694;2023-02-26T00:04:05;2.42;;;1.98;;
38715;SDS011;24833;49.324;8.694;2023-02-26T00:06:35;2.92;;;1.60;;
38715;SDS011;24833;49.324;8.694;2023-02-26T00:09:04;2.22;;;1.90;;
38715;SDS011;24833;49.324;8.694;2023-02-26T00:11:32;4.40;;;2.08;;
38715;SDS011;24833;49.324;8.694;2023-02-26T00:13:59;3.38;;;2.13;;
38715;SDS011;24833;49.324;8.694;2023-02-26T00:19:02;5.22;;;2.65;;
38715;SDS011;24833;49.324;8.694;2023-02-26T00:21:32;3.42;;;2.20;;
38715;SDS011;24833;49.324;8.694;2023-02-26T00:24:01;2.95;;;1.80;;
38715;SDS011;24833;49.324;8.694;2023-02-26T00:26:29;2.95;;;1.98;;
38715;SDS011;24833;49.324;8.694;2023-02-26T00:28:58;3.95;;;1.60;;
38715;SDS011;24833;49.324;8.694;2023-02-26T00:31:26;3.25;;;1.80;;
38715;SDS011;24833;49.324;8.694;2023-02-26T00:33:55;4.25;;;2.05;;
38715;SDS011;24833;49.324;8.694;2023-02-26T00:36:31;3.55;;;1.45;;
38715;SDS011;24833;49.324;8.694;2023-02-26T00:39:23;4.53;;;1.50;;
38715;SDS011;24833;49.324;8.694;2023-02-26T00:42:16;2.38;;;1.58;;
38715;SDS011;24833;49.324;8.694;2023-02-26T00:44:44;2.63;;;1.38;;
38715;SDS011;24833;49.324;8.694;2023-02-26T00:55:50;2.25;;;1.50;;
38715;SDS011;24833;49.324;8.694;2023-02-26T00:58:17;1.65;;;1.40;;
38715;SDS011;24833;49.324;8.694;2023-02-26T01:00:45;2.80;;;1.63;;
38715;SDS011;24833;49.324;8.694;2023-02-26T01:03:12;1.73;;;1.45;;
38715;SDS011;24833;49.324;8.694;2023-02-26T01:05:39;1.60;;;1.20;;
38715;SDS011;24833;49.324;8.694;2023-02-26T01:08:14;2.53;;;1.60;;
38715;SDS011;24833;49.324;8.694;2023-02-26T01:10:53;2.30;;;1.50;;
38715;SDS011;24833;49.324;8.694;2023-02-26T01:13:20;1.80;;;1.35;;
38715;SDS011;24833;49.324;8.694;2023-02-26T01:15:49;3.25;;;1.58;;
38715;SDS011;24833;49.324;8.694;2023-02-26T01:18:40;1.75;;;1.33;;
38715;SDS011;24833;49.324;8.694;2023-02-26T01:21:18;1.80;;;1.15;;
38715;SDS011;24833;49.324;8.694;2023-02-26T01:23:55;2.38;;;1.40;;
38715;SDS011;24833;49.324;8.694;2023-02-26T01:26:27;1.35;;;1.00;;
38715;SDS011;24833;49.324;8.694;2023-02-26T01:28:55;1.17;;;1.08;;
38715;SDS011;24833;49.324;8.694;2023-02-26T01:34:02;1.05;;;0.90;;
38715;SDS011;24833;49.324;8.694;2023-02-26T01:36:43;1.13;;;0.82;;
38715;SDS011;24833;49.324;8.694;2023-02-26T01:39:27;1.33;;;0.70;;
38715;SDS011;24833;49.324;8.694;2023-02-26T01:42:12;1.52;;;0.77;;
38715;SDS011;24833;49.324;8.694;2023-02-26T01:50:52;0.98;;;0.77;;
38715;SDS011;24833;49.324;8.694;2023-02-26T01:55:55;1.83;;;0.98;;
38715;SDS011;24833;49.324;8.694;2023-02-26T01:58:31;0.68;;;0.60;;
38715;SDS011;24833;49.324;8.694;2023-02-26T02:01:01;1.52;;;0.55;;
38715;SDS011;24833;49.324;8.694;2023-02-26T02:03:31;0.80;;;0.77;;
38715;SDS011;24833;49.324;8.694;2023-02-26T02:06:25;0.95;;;0.88;;
38715;SDS011;24833;49.324;8.694;2023-02-26T02:08:53;1.67;;;1.05;;
38715;SDS011;24833;49.324;8.694;2023-02-26T02:11:21;1.02;;;0.90;;
38715;SDS011;24833;49.324;8.694;2023-02-26T02:19:54;1.05;;;0.95;;
38715;SDS011;24833;49.324;8.694;2023-02-26T02:22:49;1.42;;;1.00;;
38715;SDS011;24833;49.324;8.694;2023-02-26T02:26:00;3.80;;;1.17;;
38715;SDS011;24833;49.324;8.694;2023-02-26T02:31:51;1.50;;;0.90;;
38715;SDS011;24833;49.324;8.694;2023-02-26T02:34:42;0.75;;;0.70;;
38715;SDS011;24833;49.324;8.694;2023-02-26T02:40:40;0.95;;;0.90;;
38715;SDS011;24833;49.324;8.694;2023-02-26T02:43:14;1.58;;;0.80;;
38715;SDS011;24833;49.324;8.694;2023-02-26T02:45:50;0.68;;;0.68;;
38715;SDS011;24833;49.324;8.694;2023-02-26T02:48:34;1.40;;;0.90;;
38715;SDS011;24833;49.324;8.694;2023-02-26T02:51:40;1.08;;;0.98;;
38715;SDS011;24833;49.324;8.694;2023-02-26T02:54:39;2.70;;;0.70;;
38715;SDS011;24833;49.324;8.694;2023-02-26T02:57:14;0.80;;;0.80;;
38715;SDS011;24833;49.324;8.694;2023-02-26T02:59:53;1.70;;;0.90;;
38715;SDS011;24833;49.324;8.694;2023-02-26T03:02:35;0.88;;;0.82;;
38715;SDS011;24833;49.324;8.694;2023-02-26T03:05:36;1.08;;;0.88;;
38715;SDS011;24833;49.324;8.694;2023-02-26T03:08:05;0.90;;;0.90;;
38715;SDS011;24833;49.324;8.694;2023-02-26T03:10:37;1.15;;;0.80;;
38715;SDS011;24833;49.324;8.694;2023-02-26T03:13:04;0.80;;;0.80;;
38715;SDS011;24833;49.324;8.694;2023-02-26T03:15:35;1.05;;;0.93;;
38715;SDS011;24833;49.324;8.694;2023-02-26T03:18:22;2.15;;;1.00;;
38715;SDS011;24833;49.324;8.694;2023-02-26T03:24:05;1.40;;;0.80;;
38715;SDS011;24833;49.324;8.694;2023-02-26T03:33:05;0.75;;;0.75;;
38715;SDS011;24833;49.324;8.694;2023-02-26T03:36:09;1.00;;;0.88;;
38715;SDS011;24833;49.324;8.694;2023-02-26T03:38:57;1.63;;;0.95;;
38715;SDS011;24833;49.324;8.694;2023-02-26T03:41:39;1.83;;;1.00;;
38715;SDS011;24833;49.324;8.694;2023-02-26T03:44:52;0.85;;;0.80;;
38715;SDS011;24833;49.324;8.694;2023-02-26T03:47:33;0.88;;;0.80;;
38715;SDS011;24833;49.324;8.694;2023-02-26T03:50:05;0.90;;;0.80;;
38715;SDS011;24833;49.324;8.694;2023-02-26T03:53:08;1.02;;;0.80;;
38715;SDS011;24833;49.324;8.694;2023-02-26T03:55:49;1.65;;;0.80;;
38715;SDS011;24833;49.324;8.694;2023-02-26T03:58:47;2.15;;;1.05;;
38715;SDS011;24833;49.324;8.694;2023-02-26T04:01:46;1.48;;;0.93;;
38715;SDS011;24833;49.324;8.694;2023-02-26T04:04:41;1.50;;;1.00;;
38715;SDS011;24833;49.324;8.694;2023-02-26T04:07:30;1.15;;;1.05;;
38715;SDS011;24833;49.324;8.694;2023-02-26T04:09:57;0.85;;;0.80;;
38715;SDS011;24833;49.324;8.694;2023-02-26T04:12:27;1.85;;;0.82;;
38715;SDS011;24833;49.324;8.694;2023-02-26T04:14:54;1.70;;;1.05;;
38715;SDS011;24833;49.324;8.694;2023-02-26T04:17:23;0.95;;;0.90;;
38715;SDS011;24833;49.324;8.694;2023-02-26T04:19:50;1.58;;;1.10;;
38715;SDS011;24833;49.324;8.694;2023-02-26T04:22:18;1.55;;;0.98;;
38715;SDS011;24833;49.324;8.694;2023-02-26T04:24:45;1.30;;;0.90;;
38715;SDS011;24833;49.324;8.694;2023-02-26T04:27:13;1.40;;;0.80;;
38715;SDS011;24833;49.324;8.694;2023-02-26T04:29:40;0.88;;;0.80;;
38715;SDS011;24833;49.324;8.694;2023-02-26T04:32:07;1.75;;;1.00;;
38715;SDS011;24833;49.324;8.694;2023-02-26T04:34:35;1.23;;;0.88;;
38715;SDS011;24833;49.324;8.694;2023-02-26T04:37:02;2.45;;;0.90;;
38715;SDS011;24833;49.324;8.694;2023-02-26T04:39:29;1.67;;;0.90;;
38715;SDS011;24833;49.324;8.694;2023-02-26T04:41:57;2.60;;;1.02;;
38715;SDS011;24833;49.324;8.694;2023-02-26T04:44:23;1.75;;;0.98;;
38715;SDS011;24833;49.324;8.694;2023-02-26T04:46:51;1.35;;;0.95;;
38715;SDS011;24833;49.324;8.694;2023-02-26T04:49:18;1.52;;;0.93;;
38715;SDS011;24833;49.324;8.694;2023-02-26T04:51:46;2.67;;;0.90;;
38715;SDS011;24833;49.324;8.694;2023-02-26T04:54:14;1.33;;;0.90;;
38715;SDS011;24833;49.324;8.694;2023-02-26T04:56:41;0.90;;;0.90;;
38715;SDS011;24833;49.324;8.694;2023-02-26T04:59:08;3.47;;;1.10;;
38715;SDS011;24833;49.324;8.694;2023-02-26T05:01:35;2.58;;;0.88;;
38715;SDS011;24833;49.324;8.694;2023-02-26T05:04:06;2.15;;;0.93;;
38715;SDS011;24833;49.324;8.694;2023-02-26T05:06:33;1.27;;;0.80;;
38715;SDS011;24833;49.324;8.694;2023-02-26T05:09:00;2.50;;;0.95;;
38715;SDS011;24833;49.324;8.694;2023-02-26T05:11:29;1.23;;;0.80;;
38715;SDS011;24833;49.324;8.694;2023-02-26T05:13:56;1.73;;;0.93;;
38715;SDS011;24833;49.324;8.694;2023-02-26T05:16:23;0.70;;;0.65;;
38715;SDS011;24833;49.324;8.694;2023-02-26T05:18:50;1.67;;;1.00;;
38715;SDS011;24833;49.324;8.694;2023-02-26T05:21:17;1.48;;;0.98;;
38715;SDS011;24833;49.324;8.694;2023-02-26T05:23:44;1.40;;;0.90;;
38715;SDS011;24833;49.324;8.694;2023-02-26T05:26:11;1.50;;;0.90;;
38715;SDS011;24833;49.324;8.694;2023-02-26T05:28:39;1.30;;;0.85;;
38715;SDS011;24833;49.324;8.694;2023-02-26T05:31:06;1.88;;;0.80;;
38715;SDS011;24833;49.324;8.694;2023-02-26T05:33:34;1.15;;;0.80;;
38715;SDS011;24833;49.324;8.694;2023-02-26T05:36:01;1.30;;;0.70;;
38715;SDS011;24833;49.324;8.694;2023-02-26T05:38:28;2.00;;;0.95;;
38715;SDS011;24833;49.324;8.694;2023-02-26T05:40:55;0.90;;;0.80;;
38715;SDS011;24833;49.324;8.694;2023-02-26T05:43:23;0.63;;;0.60;;
38715;SDS011;24833;49.324;8.694;2023-02-26T05:45:51;0.85;;;0.63;;
38715;SDS011;24833;49.324;8.694;2023-02-26T05:48:19;1.10;;;1.00;;
38715;SDS011;24833;49.324;8.694;2023-02-26T05:50:47;1.38;;;0.85;;
38715;SDS011;24833;49.324;8.694;2023-02-26T05:53:15;0.90;;;0.73;;
38715;SDS011;24833;49.324;8.694;2023-02-26T05:55:42;1.13;;;0.75;;
38715;SDS011;24833;49.324;8.694;2023-02-26T05:58:09;1.35;;;0.80;;
38715;SDS011;24833;49.324;8.694;2023-02-26T06:00:37;1.17;;;0.70;;
38715;SDS011;24833;49.324;8.694;2023-02-26T06:03:04;1.15;;;0.77;;
38715;SDS011;24833;49.324;8.694;2023-02-26T06:05:31;0.80;;;0.73;;
38715;SDS011;24833;49.324;8.694;2023-02-26T06:07:59;1.88;;;0.88;;
38715;SDS011;24833;49.324;8.694;2023-02-26T06:10:26;2.92;;;0.70;;
38715;SDS011;24833;49.324;8.694;2023-02-26T06:12:52;0.95;;;0.75;;
38715;SDS011;24833;49.324;8.694;2023-02-26T06:15:20;1.35;;;0.63;;
38715;SDS011;24833;49.324;8.694;2023-02-26T06:17:46;1.13;;;0.90;;
38715;SDS011;24833;49.324;8.694;2023-02-26T06:20:14;0.80;;;0.60;;
38715;SDS011;24833;49.324;8.694;2023-02-26T06:22:41;3.10;;;0.60;;
38715;SDS011;24833;49.324;8.694;2023-02-26T06:25:08;1.48;;;0.70;;
38715;SDS011;24833;49.324;8.694;2023-02-26T06:27:35;0.70;;;0.70;;
38715;SDS011;24833;49.324;8.694;2023-02-26T06:30:02;1.00;;;0.80;;
38715;SDS011;24833;49.324;8.694;2023-02-26T06:32:30;2.42;;;0.70;;
38715;SDS011;24833;49.324;8.694;2023-02-26T06:34:57;1.67;;;0.80;;
38715;SDS011;24833;49.324;8.694;2023-02-26T06:37:24;0.55;;;0.55;;
38715;SDS011;24833;49.324;8.694;2023-02-26T06:39:51;1.88;;;0.70;;
38715;SDS011;24833;49.324;8.694;2023-02-26T06:42:18;0.65;;;0.65;;
38715;SDS011;24833;49.324;8.694;2023-02-26T06:44:45;2.45;;;0.90;;
38715;SDS011;24833;49.324;8.694;2023-02-26T06:47:13;0.85;;;0.75;;
38715;SDS011;24833;49.324;8.694;2023-02-26T06:49:40;0.70;;;0.70;;
38715;SDS011;24833;49.324;8.694;2023-02-26T06:52:07;1.38;;;0.73;;
38715;SDS011;24833;49.324;8.694;2023-02-26T06:54:33;1.27;;;0.60;;
38715;SDS011;24833;49.324;8.694;2023-02-26T06:57:00;1.17;;;0.60;;
38715;SDS011;24833;49.324;8.694;2023-02-26T06:59:28;2.15;;;0.93;;
38715;SDS011;24833;49.324;8.694;2023-02-26T07:01:56;1.05;;;0.93;;
38715;SDS011;24833;49.324;8.694;2023-02-26T07:04:23;1.05;;;0.55;;
38715;SDS011;24833;49.324;8.694;2023-02-26T07:06:50;2.03;;;0.90;;
38715;SDS011;24833;49.324;8.694;2023-02-26T07:09:17;1.83;;;1.10;;
38715;SDS011;24833;49.324;8.694;2023-02-26T07:11:45;0.80;;;0.80;;
38715;SDS011;24833;49.324;8.694;2023-02-26T07:14:12;1.10;;;0.88;;
38715;SDS011;24833;49.324;8.694;2023-02-26T07:16:39;0.93;;;0.90;;
38715;SDS011;24833;49.324;8.694;2023-02-26T07:19:06;1.45;;;0.90;;
38715;SDS011;24833;49.324;8.694;2023-02-26T07:21:33;0.93;;;0.57;;
38715;SDS011;24833;49.324;8.694;2023-02-26T07:24:00;1.80;;;0.75;;
38715;SDS011;24833;49.324;8.694;2023-02-26T07:26:27;1.30;;;1.10;;
38715;SDS011;24833;49.324;8.694;2023-02-26T07:28:54;1.00;;;0.77;;
38715;SDS011;24833;49.324;8.694;2023-02-26T07:31:21;0.85;;;0.80;;
38715;SDS011;24833;49.324;8.694;2023-02-26T07:33:48;2.30;;;0.95;;
38715;SDS011;24833;49.324;8.694;2023-02-26T07:36:15;1.95;;;0.85;;
38715;SDS011;24833;49.324;8.694;2023-02-26T07:38:42;2.65;;;0.70;;
38715;SDS011;24833;49.324;8.694;2023-02-26T07:41:09;1.17;;;0.80;;
38715;SDS011;24833;49.324;8.694;2023-02-26T07:43:36;2.30;;;1.00;;
38715;SDS011;24833;49.324;8.694;2023-02-26T07:46:03;1.83;;;1.00;;
38715;SDS011;24833;49.324;8.694;2023-02-26T07:48:30;1.02;;;0.90;;
38715;SDS011;24833;49.324;8.694;2023-02-26T07:50:57;1.10;;;0.75;;
38715;SDS011;24833;49.324;8.694;2023-02-26T07:53:24;0.68;;;0.60;;
38715;SDS011;24833;49.324;8.694;2023-02-26T07:55:51;1.63;;;0.98;;
38715;SDS011;24833;49.324;8.694;2023-02-26T07:58:18;2.42;;;1.02;;
38715;SDS011;24833;49.324;8.694;2023-02-26T08:00:45;1.67;;;1.00;;
38715;SDS011;24833;49.324;8.694;2023-02-26T08:03:12;2.63;;;0.73;;
38715;SDS011;24833;49.324;8.694;2023-02-26T08:05:40;0.98;;;0.63;;
38715;SDS011;24833;49.324;8.694;2023-02-26T08:08:07;1.40;;;0.98;;
38715;SDS011;24833;49.324;8.694;2023-02-26T08:10:34;1.73;;;1.10;;
38715;SDS011;24833;49.324;8.694;2023-02-26T08:13:02;3.53;;;1.15;;
38715;SDS011;24833;49.324;8.694;2023-02-26T08:15:29;1.90;;;1.10;;
38715;SDS011;24833;49.324;8.694;2023-02-26T08:17:56;2.83;;;0.88;;
38715;SDS011;24833;49.324;8.694;2023-02-26T08:20:23;1.02;;;0.88;;
38715;SDS011;24833;49.324;8.694;2023-02-26T08:22:50;1.90;;;1.10;;
38715;SDS011;24833;49.324;8.694;2023-02-26T08:25:17;1.83;;;1.15;;
38715;SDS011;24833;49.324;8.694;2023-02-26T08:27:44;3.50;;;1.58;;
38715;SDS011;24833;49.324;8.694;2023-02-26T08:30:11;1.33;;;0.75;;
38715;SDS011;24833;49.324;8.694;2023-02-26T08:32:39;1.98;;;1.05;;
38715;SDS011;24833;49.324;8.694;2023-02-26T08:35:08;0.88;;;0.80;;
38715;SDS011;24833;49.324;8.694;2023-02-26T08:37:35;2.08;;;1.10;;
38715;SDS011;24833;49.324;8.694;2023-02-26T08:40:04;0.75;;;0.73;;
38715;SDS011;24833;49.324;8.694;2023-02-26T08:42:34;2.63;;;1.23;;
38715;SDS011;24833;49.324;8.694;2023-02-26T08:45:02;0.85;;;0.75;;
38715;SDS011;24833;49.324;8.694;2023-02-26T08:47:29;3.08;;;0.88;;
38715;SDS011;24833;49.324;8.694;2023-02-26T08:49:57;1.20;;;1.08;;
38715;SDS011;24833;49.324;8.694;2023-02-26T08:52:24;1.80;;;0.88;;
38715;SDS011;24833;49.324;8.694;2023-02-26T08:54:51;1.30;;;0.75;;
38715;SDS011;24833;49.324;8.694;2023-02-26T08:57:18;3.13;;;1.08;;
38715;SDS011;24833;49.324;8.694;2023-02-26T08:59:45;1.80;;;0.93;;
38715;SDS011;24833;49.324;8.694;2023-02-26T09:02:12;2.45;;;1.25;;
38715;SDS011;24833;49.324;8.694;2023-02-26T09:04:39;2.22;;;1.20;;
38715;SDS011;24833;49.324;8.694;2023-02-26T09:07:06;0.70;;;0.70;;
38715;SDS011;24833;49.324;8.694;2023-02-26T09:09:33;1.15;;;0.80;;
38715;SDS011;24833;49.324;8.694;2023-02-26T09:12:00;1.65;;;0.70;;
38715;SDS011;24833;49.324;8.694;2023-02-26T09:14:27;1.65;;;0.85;;
38715;SDS011;24833;49.324;8.694;2023-02-26T09:16:54;3.40;;;1.02;;
38715;SDS011;24833;49.324;8.694;2023-02-26T09:19:21;0.95;;;0.70;;
38715;SDS011;24833;49.324;8.694;2023-02-26T09:21:48;1.63;;;0.70;;
38715;SDS011;24833;49.324;8.694;2023-02-26T09:24:15;2.30;;;0.70;;
38715;SDS011;24833;49.324;8.694;2023-02-26T09:26:42;1.02;;;0.60;;
38715;SDS011;24833;49.324;8.694;2023-02-26T09:29:09;1.80;;;0.90;;
38715;SDS011;24833;49.324;8.694;2023-02-26T09:31:36;2.63;;;0.82;;
38715;SDS011;24833;49.324;8.694;2023-02-26T09:34:03;0.77;;;0.70;;
38715;SDS011;24833;49.324;8.694;2023-02-26T09:36:31;2.10;;;0.65;;
38715;SDS011;24833;49.324;8.694;2023-02-26T09:38:58;2.35;;;0.80;;
38715;SDS011;24833;49.324;8.694;2023-02-26T09:41:30;0.57;;;0.50;;
38715;SDS011;24833;49.324;8.694;2023-02-26T09:44:21;0.68;;;0.68;;
38715;SDS011;24833;49.324;8.694;2023-02-26T09:49:36;2.65;;;0.90;;
38715;SDS011;24833;49.324;8.694;2023-02-26T09:55:23;1.15;;;1.05;;
38715;SDS011;24833;49.324;8.694;2023-02-26T09:58:01;0.88;;;0.57;;
38715;SDS011;24833;49.324;8.694;2023-02-26T10:00:35;1.08;;;0.90;;
38715;SDS011;24833;49.324;8.694;2023-02-26T10:14:48;0.70;;;0.65;;
38715;SDS011;24833;49.324;8.694;2023-02-26T10:18:09;0.98;;;0.65;;
38715;SDS011;24833;49.324;8.694;2023-02-26T10:20:53;0.63;;;0.57;;
38715;SDS011;24833;49.324;8.694;2023-02-26T10:23:29;0.60;;;0.43;;
38715;SDS011;24833;49.324;8.694;2023-02-26T10:26:22;1.30;;;0.55;;
38715;SDS011;24833;49.324;8.694;2023-02-26T10:29:01;1.10;;;0.68;;
38715;SDS011;24833;49.324;8.694;2023-02-26T10:32:01;2.72;;;0.77;;
38715;SDS011;24833;49.324;8.694;2023-02-26T10:34:36;0.98;;;0.50;;
38715;SDS011;24833;49.324;8.694;2023-02-26T10:40:23;0.85;;;0.40;;
38715;SDS011;24833;49.324;8.694;2023-02-26T10:43:10;1.90;;;0.40;;
38715;SDS011;24833;49.324;8.694;2023-02-26T10:45:57;0.35;;;0.35;;
38715;SDS011;24833;49.324;8.694;2023-02-26T10:51:47;0.30;;;0.30;;
38715;SDS011;24833;49.324;8.694;2023-02-26T10:54:29;0.63;;;0.50;;
38715;SDS011;24833;49.324;8.694;2023-02-26T10:57:02;0.57;;;0.40;;
38715;SDS011;24833;49.324;8.694;2023-02-26T10:59:29;0.40;;;0.40;;
38715;SDS011;24833;49.324;8.694;2023-02-26T11:01:56;0.45;;;0.45;;
38715;SDS011;24833;49.324;8.694;2023-02-26T11:04:25;0.63;;;0.32;;
38715;SDS011;24833;49.324;8.694;2023-02-26T11:06:57;0.73;;;0.40;;
38715;SDS011;24833;49.324;8.694;2023-02-26T11:09:30;0.50;;;0.50;;
38715;SDS011;24833;49.324;8.694;2023-02-26T11:12:11;0.40;;;0.40;;
38715;SDS011;24833;49.324;8.694;2023-02-26T11:14:43;2.92;;;0.57;;
38715;SDS011;24833;49.324;8.694;2023-02-26T11:17:23;0.93;;;0.45;;
38715;SDS011;24833;49.324;8.694;2023-02-26T11:19:55;0.60;;;0.40;;
38715;SDS011;24833;49.324;8.694;2023-02-26T11:22:28;0.40;;;0.40;;
38715;SDS011;24833;49.324;8.694;2023-02-26T11:24:58;0.50;;;0.38;;
38715;SDS011;24833;49.324;8.694;2023-02-26T11:27:30;0.77;;;0.32;;
38715;SDS011;24833;49.324;8.694;2023-02-26T11:30:05;0.30;;;0.30;;
38715;SDS011;24833;49.324;8.694;2023-02-26T11:32:43;0.82;;;0.30;;
38715;SDS011;24833;49.324;8.694;2023-02-26T11:35:16;0.30;;;0.30;;
38715;SDS011;24833;49.324;8.694;2023-02-26T11:37:46;1.05;;;0.32;;
38715;SDS011;24833;49.324;8.694;2023-02-26T11:40:33;0.30;;;0.30;;
38715;SDS011;24833;49.324;8.694;2023-02-26T11:43:08;0.52;;;0.40;;
38715;SDS011;24833;49.324;8.694;2023-02-26T11:45:44;0.98;;;0.50;;
38715;SDS011;24833;49.324;8.694;2023-02-26T11:48:39;0.40;;;0.35;;
38715;SDS011;24833;49.324;8.694;2023-02-26T11:51:20;0.47;;;0.32;;
38715;SDS011;24833;49.324;8.694;2023-02-26T11:53:55;0.30;;;0.30;;
38715;SDS011;24833;49.324;8.694;2023-02-26T11:56:37;0.22;;;0.22;;
38715;SDS011;24833;49.324;8.694;2023-02-26T11:59:14;0.70;;;0.40;;
38715;SDS011;24833;49.324;8.694;2023-02-26T12:01:46;0.60;;;0.40;;
38715;SDS011;24833;49.324;8.694;2023-02-26T12:04:19;0.30;;;0.30;;
38715;SDS011;24833;49.324;8.694;2023-02-26T12:06:53;0.50;;;0.40;;
38715;SDS011;24833;49.324;8.694;2023-02-26T12:09:21;0.98;;;0.40;;
38715;SDS011;24833;49.324;8.694;2023-02-26T12:12:11;0.30;;;0.22;;
38715;SDS011;24833;49.324;8.694;2023-02-26T12:21:16;0.47;;;0.20;;
38715;SDS011;24833;49.324;8.694;2023-02-26T12:24:22;0.47;;;0.20;;
38715;SDS011;24833;49.324;8.694;2023-02-26T12:30:22;0.43;;;0.28;;
38715;SDS011;24833;49.324;8.694;2023-02-26T12:44:51;0.28;;;0.28;;
38715;SDS011;24833;49.324;8.694;2023-02-26T12:47:39;0.30;;;0.30;;
38715;SDS011;24833;49.324;8.694;2023-02-26T12:53:43;0.60;;;0.60;;
38715;SDS011;24833;49.324;8.694;2023-02-26T12:56:50;0.43;;;0.22;;
38715;SDS011;24833;49.324;8.694;2023-02-26T13:00:09;0.10;;;0.10;;
38715;SDS011;24833;49.324;8.694;2023-02-26T13:03:21;0.52;;;0.10;;
38715;SDS011;24833;49.324;8.694;2023-02-26T13:06:10;0.65;;;0.20;;
38715;SDS011;24833;49.324;8.694;2023-02-26T13:11:44;0.43;;;0.20;;
38715;SDS011;24833;49.324;8.694;2023-02-26T13:20:26;0.20;;;0.20;;
38715;SDS011;24833;49.324;8.694;2023-02-26T13:23:16;1.58;;;0.20;;
38715;SDS011;24833;49.324;8.694;2023-02-26T13:25:54;0.45;;;0.30;;
38715;SDS011;24833;49.324;8.694;2023-02-26T13:31:11;0.20;;;0.20;;
38715;SDS011;24833;49.324;8.694;2023-02-26T13:34:05;0.63;;;0.30;;
38715;SDS011;24833;49.324;8.694;2023-02-26T13:36:41;0.30;;;0.30;;
38715;SDS011;24833;49.324;8.694;2023-02-26T13:39:28;0.28;;;0.28;;
38715;SDS011;24833;49.324;8.694;2023-02-26T13:50:40;1.13;;;0.50;;
38715;SDS011;24833;49.324;8.694;2023-02-26T13:56:13;0.63;;;0.43;;
38715;SDS011;24833;49.324;8.694;2023-02-26T14:01:54;0.47;;;0.45;;
38715;SDS011;24833;49.324;8.694;2023-02-26T14:04:49;0.38;;;0.38;;
38715;SDS011;24833;49.324;8.694;2023-02-26T14:10:25;0.40;;;0.40;;
38715;SDS011;24833;49.324;8.694;2023-02-26T14:13:07;0.40;;;0.30;;
38715;SDS011;24833;49.324;8.694;2023-02-26T14:15:51;0.30;;;0.30;;
38715;SDS011;24833;49.324;8.694;2023-02-26T14:24:20;0.28;;;0.20;;
38715;SDS011;24833;49.324;8.694;2023-02-26T14:27:08;0.75;;;0.40;;
38715;SDS011;24833;49.324;8.694;2023-02-26T14:35:22;0.30;;;0.30;;
38715;SDS011;24833;49.324;8.694;2023-02-26T14:38:36;0.30;;;0.30;;
38715;SDS011;24833;49.324;8.694;2023-02-26T14:40:50;0.93;;;0.30;;
38715;SDS011;24833;49.324;8.694;2023-02-26T14:43:40;0.25;;;0.25;;
38715;SDS011;24833;49.324;8.694;2023-02-26T14:46:12;0.20;;;0.20;;
38715;SDS011;24833;49.324;8.694;2023-02-26T14:48:39;0.35;;;0.30;;
38715;SDS011;24833;49.324;8.694;2023-02-26T14:54:40;0.52;;;0.40;;
38715;SDS011;24833;49.324;8.694;2023-02-26T15:05:51;0.40;;;0.40;;
38715;SDS011;24833;49.324;8.694;2023-02-26T15:11:30;0.50;;;0.50;;
38715;SDS011;24833;49.324;8.694;2023-02-26T15:14:31;0.25;;;0.25;;
38715;SDS011;24833;49.324;8.694;2023-02-26T15:25:38;0.20;;;0.20;;
38715;SDS011;24833;49.324;8.694;2023-02-26T15:28:21;0.80;;;0.20;;
38715;SDS011;24833;49.324;8.694;2023-02-26T15:30:53;0.30;;;0.30;;
38715;SDS011;24833;49.324;8.694;2023-02-26T15:33:23;0.25;;;0.25;;
38715;SDS011;24833;49.324;8.694;2023-02-26T15:35:52;0.95;;;0.70;;
38715;SDS011;24833;49.324;8.694;2023-02-26T15:38:23;0.60;;;0.47;;
38715;SDS011;24833;49.324;8.694;2023-02-26T15:40:52;0.55;;;0.30;;
38715;SDS011;24833;49.324;8.694;2023-02-26T15:43:25;1.25;;;0.50;;
38715;SDS011;24833;49.324;8.694;2023-02-26T15:45:54;0.28;;;0.28;;
38715;SDS011;24833;49.324;8.694;2023-02-26T15:48:25;0.43;;;0.30;;
38715;SDS011;24833;49.324;8.694;2023-02-26T15:50:57;0.30;;;0.30;;
38715;SDS011;24833;49.324;8.694;2023-02-26T15:55:59;0.50;;;0.50;;
38715;SDS011;24833;49.324;8.694;2023-02-26T16:01:13;0.40;;;0.40;;
38715;SDS011;24833;49.324;8.694;2023-02-26T16:03:43;0.38;;;0.32;;
38715;SDS011;24833;49.324;8.694;2023-02-26T16:06:11;0.13;;;0.13;;
38715;SDS011;24833;49.324;8.694;2023-02-26T16:08:44;0.57;;;0.55;;
38715;SDS011;24833;49.324;8.694;2023-02-26T16:11:12;0.30;;;0.30;;
38715;SDS011;24833;49.324;8.694;2023-02-26T16:13:40;0.22;;;0.22;;
38715;SDS011;24833;49.324;8.694;2023-02-26T16:16:22;0.30;;;0.30;;
38715;SDS011;24833;49.324;8.694;2023-02-26T16:18:54;0.20;;;0.20;;
38715;SDS011;24833;49.324;8.694;2023-02-26T16:21:26;0.22;;;0.20;;
38715;SDS011;24833;49.324;8.694;2023-02-26T16:24:02;1.25;;;0.40;;
38715;SDS011;24833;49.324;8.694;2023-02-26T16:26:36;0.30;;;0.30;;
38715;SDS011;24833;49.324;8.694;2023-02-26T16:29:18;0.40;;;0.20;;
38715;SDS011;24833;49.324;8.694;2023-02-26T16:31:51;0.60;;;0.40;;
38715;SDS011;24833;49.324;8.694;2023-02-26T16:37:44;0.40;;;0.40;;
38715;SDS011;24833;49.324;8.694;2023-02-26T16:40:17;1.23;;;0.40;;
38715;SDS011;24833;49.324;8.694;2023-02-26T16:45:47;0.43;;;0.43;;
38715;SDS011;24833;49.324;8.694;2023-02-26T16:48:24;0.50;;;0.38;;
38715;SDS011;24833;49.324;8.694;2023-02-26T16:51:04;0.20;;;0.20;;
38715;SDS011;24833;49.324;8.694;2023-02-26T16:53:36;0.52;;;0.30;;
38715;SDS011;24833;49.324;8.694;2023-02-26T16:56:16;0.55;;;0.50;;
38715;SDS011;24833;49.324;8.694;2023-02-26T16:58:48;0.70;;;0.40;;
38715;SDS011;24833;49.324;8.694;2023-02-26T17:01:40;0.50;;;0.38;;
38715;SDS011;24833;49.324;8.694;2023-02-26T17:04:24;0.75;;;0.47;;
38715;SDS011;24833;49.324;8.694;2023-02-26T17:06:57;0.52;;;0.52;;
38715;SDS011;24833;49.324;8.694;2023-02-26T17:14:44;0.60;;;0.60;;
38715;SDS011;24833;49.324;8.694;2023-02-26T17:17:17;0.98;;;0.55;;
38715;SDS011;24833;49.324;8.694;2023-02-26T17:19:44;0.95;;;0.60;;
38715;SDS011;24833;49.324;8.694;2023-02-26T17:22:12;0.40;;;0.40;;
38715;SDS011;24833;49.324;8.694;2023-02-26T17:27:16;0.52;;;0.52;;
38715;SDS011;24833;49.324;8.694;2023-02-26T17:29:50;0.32;;;0.30;;
38715;SDS011;24833;49.324;8.694;2023-02-26T17:32:21;0.73;;;0.57;;
38715;SDS011;24833;49.324;8.694;2023-02-26T17:34:52;0.90;;;0.60;;
38715;SDS011;24833;49.324;8.694;2023-02-26T17:37:28;1.13;;;0.70;;
38715;SDS011;24833;49.324;8.694;2023-02-26T17:40:02;0.68;;;0.50;;
38715;SDS011;24833;49.324;8.694;2023-02-26T17:42:32;1.65;;;0.80;;
38715;SDS011;24833;49.324;8.694;2023-02-26T17:44:59;0.65;;;0.60;;
38715;SDS011;24833;49.324;8.694;2023-02-26T17:47:26;0.55;;;0.50;;
38715;SDS011;24833;49.324;8.694;2023-02-26T17:49:53;1.08;;;0.70;;
38715;SDS011;24833;49.324;8.694;2023-02-26T17:52:20;0.93;;;0.60;;
38715;SDS011;24833;49.324;8.694;2023-02-26T17:54:47;1.00;;;0.43;;
38715;SDS011;24833;49.324;8.694;2023-02-26T17:57:16;0.40;;;0.40;;
38715;SDS011;24833;49.324;8.694;2023-02-26T17:59:45;0.80;;;0.60;;
38715;SDS011;24833;49.324;8.694;2023-02-26T18:02:15;1.20;;;0.77;;
38715;SDS011;24833;49.324;8.694;2023-02-26T18:04:48;0.80;;;0.50;;
38715;SDS011;24833;49.324;8.694;2023-02-26T18:07:16;1.20;;;0.60;;
38715;SDS011;24833;49.324;8.694;2023-02-26T18:09:44;0.65;;;0.50;;
38715;SDS011;24833;49.324;8.694;2023-02-26T18:12:13;0.47;;;0.47;;
38715;SDS011;24833;49.324;8.694;2023-02-26T18:14:46;0.47;;;0.40;;
38715;SDS011;24833;49.324;8.694;2023-02-26T18:17:15;1.27;;;0.57;;
38715;SDS011;24833;49.324;8.694;2023-02-26T18:19:53;1.13;;;0.80;;
38715;SDS011;24833;49.324;8.694;2023-02-26T18:22:20;1.85;;;0.95;;
38715;SDS011;24833;49.324;8.694;2023-02-26T18:24:50;1.25;;;0.90;;